Flight Briefing for CPX786

Departure Arrival
Kingsford Smith International Airport (YSSY)
Click to view FAA NOTAMS
Chek Lap Kok International (VHHH)
Click to view FAA NOTAMS
Departure Time Arrival Time
N/A N/A
Aircraft Distance
MD-11SF 3997nm
Departure METAR Arrival METAR
YSSY 192300Z 20015KT 9999 VCSH SCT006 BKN013 20/19 Q1012 VHHH 192300Z 04008KT 020V090 6000 -SHRA FEW008 SCT028 24/22 Q1018 NOSIG
Suggested Route
RIC H202 AGETA R340 AMN A461 ZAM A583 SABNO V541 DOVAR V541 BETTY


View recent IFR Routes data
Notes



Charts and Procedures

Charts for YSSY
No chart available
Charts for VHHH
No chart available

Ventusky Weather




{"cat":null,"equip":null,"transponder":null,"pbn":"PBN\/","maxpax":null,"oew":"0.0","mzfw":"0.0","mtow":"0.0","mlw":"0.0","maxfuel":"0.0"} DEVELOPMENTAL TEST USE ONLY